Time;durP1;ratioP1;P1;durP2;ratioP2;P2;SDS_P1;SDS_P2;PMS_P1;PMS_P2;Temp;Humidity;BMP_temperature;BMP_pressure;BME280_temperature;BME280_humidity;BME280_pressure;Samples;Min_cycle;Max_cycle;Signal;HPM_P1;HPM_P2
2021/03/08 00:01:42;;;;;;;24.50;13.43;;;5.80;99.90;;;;;;4157719;28;20245;-70
2021/03/08 00:03:44;;;;;;;22.98;12.77;;;5.80;99.90;;;;;;4158370;28;20304;-70
2021/03/08 00:05:45;;;;;;;23.45;13.65;;;5.90;99.90;;;;;;4156566;28;20061;-70
2021/03/08 00:07:47;;;;;;;26.00;14.32;;;5.90;99.90;;;;;;4157714;28;20045;-70
2021/03/08 00:09:48;;;;;;;24.50;15.27;;;5.80;99.90;;;;;;4152170;28;20048;-70
2021/03/08 00:11:48;;;;;;;25.08;15.38;;;5.80;99.90;;;;;;4152079;28;20053;-70
2021/03/08 00:13:49;;;;;;;25.17;15.13;;;5.80;99.90;;;;;;4148989;28;20040;-70
2021/03/08 00:15:49;;;;;;;28.15;14.48;;;5.80;99.90;;;;;;4153754;28;20091;-70
2021/03/08 00:17:51;;;;;;;27.02;14.50;;;5.80;99.90;;;;;;4157595;28;20048;-70
2021/03/08 00:19:51;;;;;;;22.52;13.70;;;5.80;99.90;;;;;;4155700;28;20089;-70
2021/03/08 00:21:52;;;;;;;21.60;13.43;;;5.80;99.90;;;;;;4155770;28;20091;-70
2021/03/08 00:23:53;;;;;;;25.20;15.48;;;5.80;99.90;;;;;;4157825;28;20087;-70
2021/03/08 00:25:53;;;;;;;24.48;14.75;;;5.90;99.90;;;;;;4157621;28;20110;-70
2021/03/08 00:27:55;;;;;;;23.45;13.88;;;5.90;99.90;;;;;;4155971;28;20052;-70
2021/03/08 00:29:55;;;;;;;22.85;14.02;;;5.90;99.90;;;;;;4156325;28;20029;-70
2021/03/08 00:31:56;;;;;;;25.30;14.85;;;6.00;99.90;;;;;;4157137;28;20371;-71
2021/03/08 00:33:57;;;;;;;25.70;15.35;;;6.00;99.90;;;;;;4146979;28;22214;-70
2021/03/08 00:35:57;;;;;;;25.00;14.68;;;6.00;99.90;;;;;;4158205;28;20033;-70
2021/03/08 00:38:01;;;;;;;24.15;14.65;;;6.00;99.90;;;;;;4147845;28;20033;-70
2021/03/08 00:40:08;;;;;;;26.13;14.95;;;6.10;99.90;;;;;;4143931;28;20097;-70
2021/03/08 00:42:09;;;;;;;25.92;15.15;;;6.00;99.90;;;;;;4160908;28;20037;-70
2021/03/08 00:44:09;;;;;;;24.70;15.32;;;6.10;99.90;;;;;;4153088;28;20029;-70
2021/03/08 00:46:10;;;;;;;29.27;16.08;;;6.10;99.90;;;;;;4155263;28;20032;-70
2021/03/08 00:48:10;;;;;;;27.67;16.02;;;6.00;99.90;;;;;;4151516;28;20057;-70
2021/03/08 00:50:19;;;;;;;29.52;18.15;;;6.10;99.90;;;;;;4155677;28;20040;-70
2021/03/08 00:52:24;;;;;;;28.17;16.60;;;6.00;99.90;;;;;;4153659;28;20045;-70
2021/03/08 00:54:25;;;;;;;31.20;18.00;;;6.00;99.90;;;;;;4158027;28;20112;-70
2021/03/08 00:56:25;;;;;;;28.90;17.77;;;6.00;99.90;;;;;;4144232;28;20026;-70
2021/03/08 00:58:26;;;;;;;32.35;16.25;;;6.00;99.90;;;;;;4148230;28;20030;-70
2021/03/08 01:00:28;;;;;;;27.67;16.25;;;6.00;99.90;;;;;;4156085;28;20056;-70
2021/03/08 01:02:29;;;;;;;29.95;16.55;;;6.00;99.90;;;;;;4156909;28;20082;-70
2021/03/08 01:04:29;;;;;;;29.73;16.85;;;6.00;99.90;;;;;;4148489;28;20053;-70
2021/03/08 01:06:30;;;;;;;27.50;16.55;;;6.00;99.90;;;;;;4156172;28;20367;-70
2021/03/08 01:08:30;;;;;;;26.83;15.32;;;6.00;99.90;;;;;;4147564;28;20096;-70
2021/03/08 01:10:31;;;;;;;26.73;15.23;;;6.00;99.90;;;;;;4155236;28;20057;-70
2021/03/08 01:12:32;;;;;;;25.38;15.82;;;6.00;99.90;;;;;;4147272;28;20042;-70
2021/03/08 01:14:32;;;;;;;28.45;15.85;;;6.00;99.90;;;;;;4152048;28;20438;-70
2021/03/08 01:16:33;;;;;;;25.98;16.02;;;6.00;99.90;;;;;;4154954;28;20209;-70
2021/03/08 01:18:33;;;;;;;29.50;16.98;;;6.00;99.90;;;;;;4153797;28;20038;-70
2021/03/08 01:20:34;;;;;;;27.60;16.17;;;6.00;99.90;;;;;;4155167;28;20036;-70
2021/03/08 01:22:35;;;;;;;28.33;16.88;;;6.00;99.90;;;;;;4151207;28;20540;-70
2021/03/08 01:24:35;;;;;;;28.75;17.08;;;6.10;99.90;;;;;;4155848;28;20405;-70
2021/03/08 01:26:36;;;;;;;32.03;16.98;;;6.00;99.90;;;;;;4157751;28;20030;-70
2021/03/08 01:28:39;;;;;;;29.70;16.15;;;6.00;99.90;;;;;;4155245;28;20040;-70
2021/03/08 01:30:42;;;;;;;26.77;15.60;;;6.00;99.90;;;;;;4157363;28;20432;-70
2021/03/08 01:32:43;;;;;;;29.90;17.33;;;6.10;99.90;;;;;;4154813;28;20030;-70
2021/03/08 01:34:44;;;;;;;30.58;17.63;;;6.00;99.90;;;;;;4156153;28;20026;-70
2021/03/08 01:36:44;;;;;;;30.33;17.38;;;6.00;99.90;;;;;;4157714;28;20030;-70
2021/03/08 01:38:46;;;;;;;29.58;17.00;;;6.00;99.90;;;;;;4149326;28;20068;-70
2021/03/08 01:40:46;;;;;;;30.65;18.05;;;6.00;99.90;;;;;;4129233;28;20034;-70
2021/03/08 01:42:47;;;;;;;31.60;18.48;;;6.00;99.90;;;;;;4153530;28;20033;-70
2021/03/08 01:44:48;;;;;;;32.50;18.67;;;6.00;99.90;;;;;;4157409;28;20111;-70
2021/03/08 01:46:51;;;;;;;33.40;19.27;;;6.00;99.90;;;;;;4158747;28;20045;-70
2021/03/08 01:48:52;;;;;;;35.17;21.13;;;6.00;99.90;;;;;;4149061;28;20044;-70
2021/03/08 01:50:53;;;;;;;34.20;19.80;;;6.00;99.90;;;;;;4147829;28;20026;-70
2021/03/08 01:52:54;;;;;;;31.05;18.80;;;6.00;99.90;;;;;;4156995;28;20129;-70
2021/03/08 01:54:55;;;;;;;33.85;18.98;;;6.00;99.90;;;;;;4146669;28;20045;-70
2021/03/08 01:56:57;;;;;;;34.97;18.55;;;6.00;99.90;;;;;;4139435;28;20041;-70
2021/03/08 01:58:57;;;;;;;31.40;18.33;;;6.00;99.90;;;;;;4157827;28;20061;-70
2021/03/08 02:00:59;;;;;;;32.20;18.08;;;6.00;99.90;;;;;;4157815;28;20448;-70
2021/03/08 02:03:00;;;;;;;33.53;18.92;;;6.00;99.90;;;;;;4156231;28;20409;-70
2021/03/08 02:05:01;;;;;;;32.05;18.65;;;5.90;99.90;;;;;;4157781;28;20033;-70
2021/03/08 02:07:01;;;;;;;34.85;20.15;;;6.00;99.90;;;;;;4160731;28;20508;-70
2021/03/08 02:09:04;;;;;;;32.13;18.38;;;6.00;99.90;;;;;;4158242;28;20125;-70
2021/03/08 02:11:04;;;;;;;33.03;19.45;;;5.90;99.90;;;;;;4148833;28;20032;-70
2021/03/08 02:13:41;;;;;;;31.02;19.23;;;5.90;99.90;;;;;;4147803;28;20048;-70
2021/03/08 02:16:08;;;;;;;31.80;18.55;;;6.00;99.90;;;;;;4159522;28;20382;-70
2021/03/08 02:18:46;;;;;;;28.00;16.88;;;6.00;99.90;;;;;;4157275;28;20099;-70
2021/03/08 02:21:03;;;;;;;39.53;19.50;;;5.90;99.90;;;;;;4152312;28;20031;-70
2021/03/08 02:23:32;;;;;;;29.98;17.73;;;5.90;99.90;;;;;;4150935;28;20367;-70
2021/03/08 02:25:45;;;;;;;30.55;18.30;;;5.90;99.90;;;;;;4158516;28;20448;-71
2021/03/08 02:28:20;;;;;;;35.55;19.88;;;5.90;99.90;;;;;;4159636;28;20036;-70
2021/03/08 02:30:49;;;;;;;32.95;19.20;;;5.80;99.90;;;;;;4147605;28;20041;-70
2021/03/08 02:32:53;;;;;;;31.50;18.65;;;5.80;99.90;;;;;;4157371;28;20123;-70
2021/03/08 02:35:16;;;;;;;35.67;19.52;;;5.80;99.90;;;;;;4157206;28;20032;-70
2021/03/08 02:37:24;;;;;;;34.50;19.35;;;5.80;99.90;;;;;;4157200;28;20120;-70
2021/03/08 02:39:40;;;;;;;31.65;18.60;;;5.80;99.90;;;;;;4159292;28;20038;-70
2021/03/08 02:41:44;;;;;;;30.58;18.38;;;5.80;99.90;;;;;;4155968;28;20439;-70
2021/03/08 02:43:47;;;;;;;33.17;18.45;;;5.80;99.90;;;;;;4157010;28;20026;-70
2021/03/08 02:45:51;;;;;;;35.30;19.65;;;5.70;99.90;;;;;;4151076;28;20029;-70
2021/03/08 02:47:53;;;;;;;33.42;19.58;;;5.70;99.90;;;;;;4144290;28;20580;-70
2021/03/08 02:49:55;;;;;;;36.88;20.58;;;5.70;99.90;;;;;;4158053;28;20033;-70
2021/03/08 02:52:08;;;;;;;36.08;20.55;;;5.70;99.90;;;;;;4150077;28;20438;-70
2021/03/08 02:54:11;;;;;;;32.47;19.05;;;5.70;99.90;;;;;;4149489;28;20509;-70
2021/03/08 02:56:16;;;;;;;36.97;19.65;;;5.70;99.90;;;;;;4159136;28;20030;-71
2021/03/08 02:58:19;;;;;;;35.35;20.17;;;5.70;99.90;;;;;;4159703;28;20061;-70
2021/03/08 03:00:22;;;;;;;37.28;21.40;;;5.70;99.90;;;;;;4157557;28;20043;-70
2021/03/08 03:02:24;;;;;;;34.75;21.05;;;5.70;99.90;;;;;;4159975;28;20398;-70
2021/03/08 03:04:24;;;;;;;40.42;22.45;;;5.60;99.90;;;;;;4153274;28;20045;-70
2021/03/08 03:06:30;;;;;;;38.25;21.20;;;5.70;99.90;;;;;;4159799;28;20095;-70
2021/03/08 03:08:32;;;;;;;41.97;22.00;;;5.60;99.90;;;;;;4159186;28;20045;-70
2021/03/08 03:10:34;;;;;;;37.10;21.80;;;5.60;99.90;;;;;;4159265;28;20045;-70
2021/03/08 03:12:36;;;;;;;41.42;23.58;;;5.60;99.90;;;;;;4159667;28;20044;-70
2021/03/08 03:14:39;;;;;;;38.80;21.95;;;5.60;99.90;;;;;;4134365;28;20042;-70
2021/03/08 03:16:41;;;;;;;35.95;20.83;;;5.60;99.90;;;;;;4159796;28;20079;-70
2021/03/08 03:18:47;;;;;;;38.65;21.98;;;5.60;99.90;;;;;;4159780;28;20133;-71
2021/03/08 03:20:50;;;;;;;42.55;22.38;;;5.60;99.90;;;;;;4159130;28;20026;-70
2021/03/08 03:22:52;;;;;;;40.95;22.83;;;5.60;99.90;;;;;;4150370;28;20029;-70
2021/03/08 03:24:56;;;;;;;40.67;23.15;;;5.60;99.90;;;;;;4151176;28;20486;-70
2021/03/08 03:26:59;;;;;;;40.55;23.67;;;5.60;99.90;;;;;;4128810;28;20023;-70
2021/03/08 03:29:04;;;;;;;38.13;22.08;;;5.60;99.90;;;;;;4164511;28;20053;-71
2021/03/08 03:31:06;;;;;;;41.05;23.00;;;5.60;99.90;;;;;;4156516;28;20029;-70
2021/03/08 03:33:07;;;;;;;41.20;22.45;;;5.60;99.90;;;;;;4149811;28;20044;-70
2021/03/08 03:35:10;;;;;;;40.97;22.70;;;5.50;99.90;;;;;;4157720;28;22556;-70
2021/03/08 03:37:12;;;;;;;;;;;5.60;99.90;;;;;;4154920;28;20116;-70
2021/03/08 03:39:12;;;;;;;42.67;23.55;;;5.50;99.90;;;;;;4157043;28;19913;-70
2021/03/08 03:41:13;;;;;;;44.83;24.48;;;5.50;99.90;;;;;;4156807;28;20048;-70
2021/03/08 03:43:14;;;;;;;43.42;23.70;;;5.50;99.90;;;;;;4159647;28;20041;-70
2021/03/08 03:45:19;;;;;;;42.63;22.75;;;5.60;99.90;;;;;;4158394;28;20041;-70
2021/03/08 03:47:21;;;;;;;41.90;24.63;;;5.50;99.90;;;;;;4150756;28;20080;-70
2021/03/08 03:49:22;;;;;;;43.78;24.55;;;5.50;99.90;;;;;;4156384;28;20041;-70
2021/03/08 03:51:22;;;;;;;41.60;22.77;;;5.50;99.90;;;;;;4157088;28;20533;-70
2021/03/08 03:53:23;;;;;;;42.10;24.50;;;5.50;99.90;;;;;;4150730;28;20041;-70
2021/03/08 03:55:25;;;;;;;42.40;24.13;;;5.50;99.90;;;;;;4154849;28;20037;-70
2021/03/08 03:57:34;;;;;;;;;;;5.60;99.90;;;;;;4158091;28;20059;-70
2021/03/08 03:59:50;;;;;;;41.75;23.35;;;5.60;99.90;;;;;;4157262;28;19909;-70
2021/03/08 04:02:05;;;;;;;47.70;24.17;;;5.60;99.90;;;;;;4158576;28;20037;-70
2021/03/08 04:04:13;;;;;;;42.22;23.27;;;5.50;99.90;;;;;;4157683;28;20029;-70
2021/03/08 04:06:15;;;;;;;47.88;25.67;;;5.50;99.90;;;;;;4151774;28;20391;-70
2021/03/08 04:08:18;;;;;;;43.85;25.63;;;5.50;99.90;;;;;;4158907;28;20068;-70
2021/03/08 04:10:20;;;;;;;;;;;5.50;99.90;;;;;;4159123;28;20039;-70
2021/03/08 04:12:26;;;;;;;43.33;24.63;;;5.50;99.90;;;;;;4158468;28;19917;-70
2021/03/08 04:14:30;;;;;;;51.00;26.65;;;5.50;99.90;;;;;;4154514;28;20216;-70
2021/03/08 04:16:33;;;;;;;47.50;26.77;;;5.50;99.90;;;;;;4154059;28;20649;-70
2021/03/08 04:18:36;;;;;;;48.38;26.70;;;5.50;99.90;;;;;;4156992;28;20429;-70
2021/03/08 04:20:38;;;;;;;49.75;28.42;;;5.50;99.90;;;;;;4160836;28;20053;-70
2021/03/08 04:22:52;;;;;;;47.80;27.17;;;5.50;99.90;;;;;;4158043;28;20037;-70
2021/03/08 04:24:56;;;;;;;50.67;26.67;;;5.40;99.90;;;;;;4157783;28;20034;-70
2021/03/08 04:27:00;;;;;;;50.35;26.98;;;5.40;99.90;;;;;;4149543;28;20466;-70
2021/03/08 04:29:01;;;;;;;50.00;28.33;;;5.40;99.90;;;;;;4148755;28;20033;-70
2021/03/08 04:31:03;;;;;;;51.58;27.45;;;5.40;99.90;;;;;;4157476;28;20037;-70
2021/03/08 04:33:05;;;;;;;53.90;28.95;;;5.40;99.90;;;;;;4146646;28;20033;-70
2021/03/08 04:35:08;;;;;;;49.63;26.13;;;5.40;99.90;;;;;;4158423;28;20029;-70
2021/03/08 04:37:09;;;;;;;49.10;26.92;;;5.40;99.90;;;;;;4158266;28;20113;-70
2021/03/08 04:39:11;;;;;;;52.33;27.42;;;5.30;99.90;;;;;;4158706;28;20029;-70
2021/03/08 04:41:12;;;;;;;54.20;29.05;;;5.30;99.90;;;;;;4153884;28;20184;-70
2021/03/08 04:43:13;;;;;;;49.42;29.02;;;5.30;99.90;;;;;;4156524;28;20148;-70
2021/03/08 04:45:17;;;;;;;49.55;27.33;;;5.30;99.90;;;;;;4157597;28;20104;-70
2021/03/08 04:47:20;;;;;;;57.50;28.27;;;5.30;99.90;;;;;;4156154;28;20067;-70
2021/03/08 04:49:21;;;;;;;53.05;28.52;;;5.30;99.90;;;;;;4137150;28;20065;-70
2021/03/08 04:51:23;;;;;;;47.58;27.02;;;5.30;99.90;;;;;;4156130;28;20437;-70
2021/03/08 04:53:24;;;;;;;47.78;26.73;;;5.30;99.90;;;;;;4139697;28;20418;-70
2021/03/08 04:55:28;;;;;;;47.17;26.42;;;5.30;99.90;;;;;;4157878;28;20429;-70
2021/03/08 04:57:30;;;;;;;45.45;26.02;;;5.30;99.90;;;;;;4156162;28;20088;-70
2021/03/08 04:59:30;;;;;;;48.75;25.60;;;5.30;99.90;;;;;;4156785;28;20033;-70
2021/03/08 05:01:33;;;;;;;50.90;26.73;;;5.30;99.90;;;;;;4155628;28;20128;-70
2021/03/08 05:03:36;;;;;;;52.90;27.55;;;5.30;99.90;;;;;;4148451;28;20136;-70
2021/03/08 05:05:37;;;;;;;47.53;27.05;;;5.20;99.90;;;;;;4164174;28;20036;-70
2021/03/08 05:07:40;;;;;;;55.53;28.35;;;5.30;99.90;;;;;;4158013;28;20136;-70
2021/03/08 05:09:41;;;;;;;53.78;30.13;;;5.30;99.90;;;;;;4152955;28;20026;-70
2021/03/08 05:11:46;;;;;;;46.92;26.13;;;5.30;99.90;;;;;;4157605;28;20053;-70
2021/03/08 05:13:51;;;;;;;54.80;28.33;;;5.20;99.90;;;;;;4149904;28;20389;-70
2021/03/08 05:15:53;;;;;;;53.75;28.67;;;5.20;99.90;;;;;;4150845;28;20469;-70
2021/03/08 05:17:56;;;;;;;53.20;28.45;;;5.20;99.90;;;;;;4145196;28;20458;-70
2021/03/08 05:20:00;;;;;;;50.33;27.27;;;5.20;99.90;;;;;;4148141;28;20065;-70
2021/03/08 05:22:07;;;;;;;53.70;29.08;;;5.20;99.90;;;;;;4153389;28;20564;-70
2021/03/08 05:24:10;;;;;;;54.47;28.73;;;5.20;99.90;;;;;;4155850;28;20121;-70
2021/03/08 05:26:17;;;;;;;57.97;30.73;;;5.20;99.90;;;;;;4156464;28;20072;-70
2021/03/08 05:28:19;;;;;;;55.00;29.33;;;5.20;99.90;;;;;;4156188;28;20493;-70
2021/03/08 05:30:22;;;;;;;54.13;29.50;;;5.20;99.90;;;;;;4153374;28;20030;-70
2021/03/08 05:32:31;;;;;;;55.65;30.50;;;5.20;99.90;;;;;;4151429;28;20041;-70
2021/03/08 05:34:32;;;;;;;55.38;30.42;;;5.10;99.90;;;;;;4156056;28;20378;-70
2021/03/08 05:36:39;;;;;;;52.15;28.17;;;5.20;99.90;;;;;;4150132;28;20095;-70
2021/03/08 05:38:41;;;;;;;56.88;29.80;;;5.20;99.90;;;;;;4157824;28;20037;-70
2021/03/08 05:41:04;;;;;;;51.67;29.07;;;5.20;99.90;;;;;;4158632;28;20047;-70
2021/03/08 05:43:08;;;;;;;56.53;28.90;;;5.10;99.90;;;;;;4156020;28;20091;-70
2021/03/08 05:45:18;;;;;;;54.80;29.25;;;5.20;99.90;;;;;;4159476;28;20057;-70
2021/03/08 05:47:48;;;;;;;51.65;28.48;;;5.10;99.90;;;;;;4158420;28;20393;-70
2021/03/08 05:50:28;;;;;;;50.90;28.83;;;5.10;99.90;;;;;;4158535;28;20034;-70
2021/03/08 05:53:02;;;;;;;57.70;29.48;;;5.10;99.90;;;;;;4153148;28;20132;-71
2021/03/08 05:55:15;;;;;;;56.17;29.88;;;5.10;99.90;;;;;;4148099;28;20536;-70
2021/03/08 05:57:30;;;;;;;61.30;31.48;;;5.10;99.90;;;;;;4154049;28;20095;-70
2021/03/08 05:59:34;;;;;;;57.28;30.45;;;5.20;99.90;;;;;;4147537;28;20104;-70
2021/03/08 06:01:59;;;;;;;58.15;31.08;;;5.10;99.90;;;;;;4158154;28;20563;-70
2021/03/08 06:04:15;;;;;;;58.28;30.60;;;5.10;99.90;;;;;;4155308;28;20033;-70
2021/03/08 06:06:52;;;;;;;56.92;30.10;;;5.10;99.90;;;;;;4159139;28;20036;-70
2021/03/08 06:09:19;;;;;;;59.10;30.95;;;5.10;99.90;;;;;;4159363;28;20033;-70
2021/03/08 06:11:23;;;;;;;59.78;32.92;;;5.10;99.90;;;;;;4159890;28;20389;-70
2021/03/08 06:13:25;;;;;;;58.50;32.17;;;5.10;99.90;;;;;;4159917;28;20053;-70
2021/03/08 06:15:28;;;;;;;60.50;31.00;;;5.10;99.90;;;;;;4157807;28;20038;-70
2021/03/08 06:17:30;;;;;;;67.97;34.20;;;5.10;99.90;;;;;;4157526;28;20470;-70
2021/03/08 06:19:33;;;;;;;65.22;33.80;;;5.10;99.90;;;;;;4158151;28;20049;-70
2021/03/08 06:21:37;;;;;;;65.03;34.88;;;5.10;99.90;;;;;;4153853;28;20034;-70
2021/03/08 06:23:41;;;;;;;65.65;33.53;;;5.20;99.90;;;;;;4143967;28;20052;-70
2021/03/08 06:25:43;;;;;;;70.93;35.47;;;5.20;99.90;;;;;;4159634;28;20041;-70
2021/03/08 06:27:44;;;;;;;64.15;33.45;;;5.10;99.90;;;;;;4155119;28;20041;-70
2021/03/08 06:29:45;;;;;;;64.45;33.75;;;5.10;99.90;;;;;;4158898;28;20334;-71
2021/03/08 06:31:47;;;;;;;62.33;32.40;;;5.10;99.90;;;;;;4158237;28;20472;-70
2021/03/08 06:33:48;;;;;;;65.50;34.60;;;5.20;99.90;;;;;;4158538;28;20037;-70
2021/03/08 06:35:50;;;;;;;65.13;33.65;;;5.20;99.90;;;;;;4159149;28;20057;-70
2021/03/08 06:38:11;;;;;;;64.45;33.60;;;5.20;99.90;;;;;;4129141;28;20336;-70
2021/03/08 06:40:12;;;;;;;74.85;37.42;;;5.20;99.90;;;;;;4157840;28;20041;-70
2021/03/08 06:42:19;;;;;;;72.75;37.05;;;5.20;99.90;;;;;;4158081;28;20040;-70
2021/03/08 06:44:19;;;;;;;64.03;34.05;;;5.20;99.90;;;;;;4140955;28;20042;-70
2021/03/08 06:46:20;;;;;;;65.65;34.80;;;5.20;99.90;;;;;;4155882;28;20474;-70
2021/03/08 06:48:22;;;;;;;59.38;33.10;;;5.20;99.90;;;;;;4154976;28;20468;-70
2021/03/08 06:50:22;;;;;;;65.72;35.35;;;5.20;99.90;;;;;;4152228;28;20029;-70
2021/03/08 06:52:24;;;;;;;65.35;35.95;;;5.20;99.90;;;;;;4156704;28;20148;-70
2021/03/08 06:54:25;;;;;;;71.35;36.47;;;5.20;99.90;;;;;;4150703;28;20115;-70
2021/03/08 06:56:27;;;;;;;67.75;34.65;;;5.30;99.90;;;;;;4154770;28;20120;-70
2021/03/08 06:58:27;;;;;;;67.25;34.65;;;5.30;99.90;;;;;;4156616;28;20057;-70
2021/03/08 07:00:32;;;;;;;57.85;32.13;;;5.30;99.90;;;;;;4158942;28;20065;-70
2021/03/08 07:02:49;;;;;;;58.58;32.85;;;5.20;99.90;;;;;;4152681;28;20115;-70
2021/03/08 07:04:50;;;;;;;63.38;33.65;;;5.30;99.90;;;;;;4155996;28;20044;-70
2021/03/08 07:07:02;;;;;;;64.22;33.13;;;5.30;99.90;;;;;;4149534;28;20041;-70
2021/03/08 07:09:04;;;;;;;66.68;34.45;;;5.30;99.90;;;;;;4157729;28;20037;-70
2021/03/08 07:11:34;;;;;;;76.55;37.17;;;5.30;99.90;;;;;;4137976;28;20069;-70
2021/03/08 07:13:37;;;;;;;62.63;32.83;;;5.30;99.90;;;;;;4144476;28;20042;-70
2021/03/08 07:15:58;;;;;;;70.28;35.95;;;5.30;99.90;;;;;;4151504;28;20030;-70
2021/03/08 07:17:59;;;;;;;64.00;34.25;;;5.30;99.90;;;;;;4148584;28;20036;-70
2021/03/08 07:20:08;;;;;;;60.78;32.65;;;5.40;99.90;;;;;;4154301;28;20463;-72
2021/03/08 07:22:11;;;;;;;61.45;31.77;;;5.40;99.90;;;;;;4154564;28;20029;-70
2021/03/08 07:24:15;;;;;;;57.10;31.20;;;5.40;99.90;;;;;;4156300;28;20447;-70
2021/03/08 07:26:18;;;;;;;56.63;31.77;;;5.40;99.90;;;;;;4156814;28;20041;-70
2021/03/08 07:28:20;;;;;;;56.85;31.90;;;5.50;99.90;;;;;;4153930;28;20614;-70
2021/03/08 07:30:25;;;;;;;58.65;31.00;;;5.50;99.90;;;;;;4157702;28;20041;-70
2021/03/08 07:32:26;;;;;;;58.00;31.35;;;5.60;99.90;;;;;;4157142;28;20121;-70
2021/03/08 07:34:28;;;;;;;52.90;28.67;;;5.60;99.90;;;;;;4154925;28;20037;-70
2021/03/08 07:36:29;;;;;;;54.33;29.08;;;5.60;99.90;;;;;;4157341;28;20053;-70
2021/03/08 07:38:33;;;;;;;55.72;30.20;;;5.60;99.90;;;;;;4155366;28;20504;-70
2021/03/08 07:40:35;;;;;;;56.08;31.92;;;5.70;99.90;;;;;;4159131;28;20030;-70
2021/03/08 07:42:42;;;;;;;56.67;31.17;;;5.70;99.90;;;;;;4156944;28;20413;-70
2021/03/08 07:44:50;;;;;;;60.80;32.50;;;5.70;99.90;;;;;;4158774;28;20064;-70
2021/03/08 07:46:53;;;;;;;58.15;32.30;;;5.70;99.90;;;;;;4156876;28;20018;-70
2021/03/08 07:48:55;;;;;;;61.88;33.30;;;5.70;99.90;;;;;;4157921;28;20117;-70
2021/03/08 07:50:55;;;;;;;56.97;31.13;;;5.80;99.90;;;;;;4154463;28;20408;-70
2021/03/08 07:52:56;;;;;;;54.90;31.13;;;5.80;99.90;;;;;;4154395;28;20040;-70
2021/03/08 07:55:02;;;;;;;53.53;30.15;;;5.80;99.90;;;;;;4151071;28;20041;-70
2021/03/08 07:57:03;;;;;;;56.33;31.55;;;5.80;99.90;;;;;;4149144;28;20033;-70
2021/03/08 07:59:03;;;;;;;55.25;29.98;;;5.80;99.90;;;;;;4153979;28;20080;-70
2021/03/08 08:01:09;;;;;;;52.45;29.80;;;5.80;99.90;;;;;;4152095;28;20034;-70
2021/03/08 08:03:09;;;;;;;57.45;30.48;;;5.80;99.90;;;;;;4157098;28;20132;-70
2021/03/08 08:05:11;;;;;;;58.97;30.73;;;5.90;99.90;;;;;;4156448;28;20482;-70
2021/03/08 08:07:12;;;;;;;53.83;30.35;;;5.90;99.90;;;;;;4156425;28;20116;-70
2021/03/08 08:09:18;;;;;;;57.47;31.57;;;5.90;99.90;;;;;;4169277;28;20045;-70
2021/03/08 08:11:20;;;;;;;58.67;31.15;;;5.90;99.90;;;;;;4157999;28;20033;-70
2021/03/08 08:13:29;;;;;;;57.42;31.35;;;5.90;99.90;;;;;;4157374;28;20133;-70
2021/03/08 08:15:32;;;;;;;56.38;31.58;;;5.90;99.90;;;;;;4151823;28;20033;-70
2021/03/08 08:17:38;;;;;;;58.72;32.17;;;5.90;99.90;;;;;;4153827;28;20042;-70
2021/03/08 08:19:43;;;;;;;54.58;30.88;;;5.90;99.90;;;;;;4154157;28;20052;-70
2021/03/08 08:21:45;;;;;;;59.67;32.72;;;5.90;99.90;;;;;;4156558;28;20128;-70
2021/03/08 08:23:55;;;;;;;55.58;30.83;;;5.90;99.90;;;;;;4155715;28;20069;-70
2021/03/08 08:25:57;;;;;;;53.47;30.23;;;5.90;99.90;;;;;;4155698;28;20065;-70
2021/03/08 08:27:59;;;;;;;55.10;31.10;;;5.90;99.90;;;;;;4152974;28;20030;-70
2021/03/08 08:30:01;;;;;;;65.32;31.55;;;5.90;99.90;;;;;;4150924;28;20063;-70
2021/03/08 08:32:04;;;;;;;53.15;29.58;;;6.00;99.90;;;;;;4155251;28;20091;-70
2021/03/08 08:34:39;;;;;;;56.70;32.00;;;6.00;99.90;;;;;;4150031;28;20509;-70
2021/03/08 08:36:50;;;;;;;57.63;32.03;;;6.00;99.90;;;;;;4154263;28;20026;-70
2021/03/08 08:38:53;;;;;;;61.85;32.25;;;6.00;99.90;;;;;;4155836;28;20061;-70
2021/03/08 08:41:25;;;;;;;57.92;32.95;;;6.00;99.90;;;;;;4155888;28;20048;-70
2021/03/08 08:43:25;;;;;;;60.67;33.80;;;5.90;99.90;;;;;;4151594;28;20040;-70
2021/03/08 08:45:28;;;;;;;58.35;31.80;;;5.90;99.90;;;;;;4155489;28;20486;-70
2021/03/08 08:47:32;;;;;;;59.30;32.92;;;6.00;99.90;;;;;;4155571;28;20512;-70
2021/03/08 08:49:39;;;;;;;63.33;32.53;;;6.00;99.90;;;;;;4157046;28;20124;-70
2021/03/08 08:51:56;;;;;;;64.53;34.72;;;6.00;99.90;;;;;;4179146;28;20103;-70
2021/03/08 08:53:57;;;;;;;59.17;33.47;;;6.00;99.90;;;;;;4153415;28;20052;-70
2021/03/08 08:55:58;;;;;;;59.80;31.52;;;6.00;99.90;;;;;;4157962;28;20037;-70
2021/03/08 08:58:21;;;;;;;55.95;32.03;;;6.00;99.90;;;;;;4152102;28;20477;-70
2021/03/08 09:00:22;;;;;;;56.45;31.42;;;6.00;99.90;;;;;;4153668;28;20053;-70
2021/03/08 09:02:26;;;;;;;63.25;33.88;;;6.10;99.90;;;;;;4156798;28;20274;-70
2021/03/08 09:04:34;;;;;;;61.95;34.03;;;6.00;99.90;;;;;;4157492;28;20108;-70
2021/03/08 09:06:41;;;;;;;59.78;31.90;;;6.10;99.90;;;;;;4179840;28;20043;-70
2021/03/08 09:08:52;;;;;;;55.80;32.45;;;6.10;99.90;;;;;;4157970;28;20060;-70
2021/03/08 09:10:53;;;;;;;62.38;34.50;;;6.10;99.90;;;;;;4152054;28;20044;-70
2021/03/08 09:13:08;;;;;;;62.88;33.88;;;6.20;99.90;;;;;;4150918;28;20124;-70
2021/03/08 09:15:16;;;;;;;54.50;31.42;;;6.20;99.90;;;;;;4154916;28;20033;-70
2021/03/08 09:17:47;;;;;;;64.47;34.28;;;6.20;99.90;;;;;;4154759;28;20314;-70
2021/03/08 09:20:11;;;;;;;59.92;33.97;;;6.20;99.90;;;;;;4157434;28;20026;-70
2021/03/08 09:22:23;;;;;;;57.65;31.80;;;6.20;99.90;;;;;;4160033;28;20127;-70
2021/03/08 09:24:32;;;;;;;60.05;33.65;;;6.30;99.90;;;;;;4160516;28;20037;-70
2021/03/08 09:26:37;;;;;;;54.67;31.15;;;6.20;99.90;;;;;;4161408;28;20394;-70
2021/03/08 09:28:45;;;;;;;54.35;30.88;;;6.30;99.90;;;;;;4160319;28;20381;-74
2021/03/08 09:30:49;;;;;;;57.38;31.17;;;6.30;99.90;;;;;;4153320;28;20482;-70
2021/03/08 09:32:49;;;;;;;56.97;32.45;;;6.30;99.90;;;;;;4157165;28;20041;-70
2021/03/08 09:34:50;;;;;;;60.03;33.95;;;6.30;99.90;;;;;;4160580;28;20034;-70
2021/03/08 09:36:53;;;;;;;58.13;32.75;;;6.30;99.90;;;;;;4153248;28;20076;-71
2021/03/08 09:38:53;;;;;;;56.47;31.95;;;6.30;99.90;;;;;;4163151;28;20588;-71
2021/03/08 09:40:57;;;;;;;60.58;33.80;;;6.30;99.90;;;;;;4156943;28;20026;-71
2021/03/08 09:42:58;;;;;;;60.55;34.30;;;6.30;99.90;;;;;;4159181;28;20029;-70
2021/03/08 09:44:58;;;;;;;60.60;33.80;;;6.30;99.90;;;;;;4159072;28;20336;-70
2021/03/08 09:46:59;;;;;;;60.97;33.47;;;6.40;99.90;;;;;;4158044;28;20049;-71
2021/03/08 09:49:04;;;;;;;60.42;33.88;;;6.40;99.90;;;;;;4152001;28;20030;-69
2021/03/08 09:51:07;;;;;;;57.08;32.80;;;6.40;99.90;;;;;;4137982;28;20041;-69
2021/03/08 09:53:08;;;;;;;63.20;32.35;;;6.40;99.90;;;;;;4158057;28;20279;-69
2021/03/08 09:55:14;;;;;;;57.83;31.70;;;6.40;99.90;;;;;;4160452;28;20537;-69
2021/03/08 09:57:38;;;;;;;52.65;30.48;;;6.40;99.90;;;;;;4157197;28;20281;-69
2021/03/08 09:59:57;;;;;;;57.42;32.63;;;6.50;99.90;;;;;;4156438;28;20059;-69
2021/03/08 10:01:58;;;;;;;56.85;30.52;;;6.50;99.90;;;;;;4158985;28;20048;-69
2021/03/08 10:03:59;;;;;;;58.70;33.17;;;6.50;99.90;;;;;;4144134;28;20108;-69
2021/03/08 10:05:59;;;;;;;57.95;33.03;;;6.50;99.90;;;;;;4165609;28;20040;-69
2021/03/08 10:08:00;;;;;;;58.05;32.70;;;6.50;99.90;;;;;;4161054;28;20061;-69
2021/03/08 10:10:11;;;;;;;57.15;31.45;;;6.60;99.90;;;;;;4160628;28;20436;-69
2021/03/08 10:12:12;;;;;;;55.45;31.48;;;6.60;99.90;;;;;;4157944;28;20324;-69
2021/03/08 10:14:26;;;;;;;60.67;34.15;;;6.60;99.90;;;;;;4159805;28;20049;-69
2021/03/08 10:16:30;;;;;;;61.58;32.88;;;6.60;99.90;;;;;;4159907;28;20068;-69
2021/03/08 10:18:31;;;;;;;55.00;30.73;;;6.60;99.90;;;;;;4158442;28;20061;-69
2021/03/08 10:20:32;;;;;;;55.28;31.23;;;6.70;99.90;;;;;;4160891;28;20245;-69
2021/03/08 10:22:37;;;;;;;54.25;31.10;;;6.70;99.90;;;;;;4156333;28;20364;-69
2021/03/08 10:24:40;;;;;;;57.75;32.78;;;6.70;99.90;;;;;;4157119;28;20500;-69
2021/03/08 10:26:45;;;;;;;56.25;31.85;;;6.80;99.90;;;;;;4151818;28;20041;-69
2021/03/08 10:28:50;;;;;;;57.67;31.17;;;6.70;99.90;;;;;;4159066;28;20392;-69
2021/03/08 10:30:51;;;;;;;55.35;30.90;;;6.80;99.90;;;;;;4158142;28;20048;-69
2021/03/08 10:33:16;;;;;;;54.88;31.17;;;6.80;99.90;;;;;;4153430;28;20402;-69
2021/03/08 10:35:17;;;;;;;58.63;33.88;;;6.90;99.90;;;;;;4149020;28;20042;-69
2021/03/08 10:37:21;;;;;;;54.67;31.42;;;6.90;99.90;;;;;;4152450;28;20120;-69
2021/03/08 10:39:22;;;;;;;56.05;33.05;;;6.90;99.90;;;;;;4158386;28;20083;-69
2021/03/08 10:41:25;;;;;;;56.70;32.65;;;6.90;99.90;;;;;;4157419;28;20111;-69
2021/03/08 10:43:27;;;;;;;57.78;31.85;;;7.00;99.90;;;;;;4154318;28;20103;-69
2021/03/08 10:45:28;;;;;;;61.67;33.25;;;7.00;99.90;;;;;;4154533;28;20038;-69